OEMA/MED METAR and TAF weather

Enter ICAO airport designator
Station Type Date Time Source
OEMA METAR 2019/08/19 22:00 UTC NOAA

OEMA 192200Z 30005KT CAVOK 35/13 Q1011 NOSIG


Station Type Date Time Source
OEMA Decoded METAR 2019/08/19 22:00 UTC NOAA

Madinah, Saudi Arabia (OEMA) 24-33N 039-42E 636M
Aug 19, 2019 - 06:00 PM EDT / 2019.08.19 2200 UTC
Wind: from the WNW (300 degrees) at 6 MPH (5 KT):0
Visibility: greater than 7 mile(s):0
Temperature: 95 F (35 C)
Dew Point: 55 F (13 C)
Relative Humidity: 26%
Pressure (altimeter): 29.85 in. Hg (1011 hPa)
ob: OEMA 192200Z 30005KT CAVOK 35/13 Q1011 NOSIG
cycle: 22

Station Type Date Time Source
OEMA TAF 2019/08/19 18:09 UTC NOAA

TAF OEMA 191700Z 1918/2024 VRB03KT CAVOK
BECMG 2010/2012 29010KT

Example: see airport list